sensor_id;sensor_type;location;lat;lon;timestamp;P1;durP1;ratioP1;P2;durP2;ratioP2
18082;SDS011;9168;51.194;6.840;2023-06-24T00:02:01;12.45;;;7.72;;
18082;SDS011;9168;51.194;6.840;2023-06-24T00:04:29;16.40;;;8.55;;
18082;SDS011;9168;51.194;6.840;2023-06-24T00:06:56;13.50;;;8.18;;
18082;SDS011;9168;51.194;6.840;2023-06-24T00:09:24;13.75;;;8.70;;
18082;SDS011;9168;51.194;6.840;2023-06-24T00:11:52;15.77;;;8.95;;
18082;SDS011;9168;51.194;6.840;2023-06-24T00:14:20;14.27;;;7.75;;
18082;SDS011;9168;51.194;6.840;2023-06-24T00:16:49;11.55;;;8.02;;
18082;SDS011;9168;51.194;6.840;2023-06-24T00:19:18;15.75;;;8.02;;
18082;SDS011;9168;51.194;6.840;2023-06-24T00:21:47;13.82;;;7.97;;
18082;SDS011;9168;51.194;6.840;2023-06-24T00:24:16;17.02;;;8.25;;
18082;SDS011;9168;51.194;6.840;2023-06-24T00:26:44;16.52;;;8.20;;
18082;SDS011;9168;51.194;6.840;2023-06-24T00:29:12;13.88;;;8.20;;
18082;SDS011;9168;51.194;6.840;2023-06-24T00:31:38;12.88;;;7.72;;
18082;SDS011;9168;51.194;6.840;2023-06-24T00:34:05;17.60;;;8.80;;
18082;SDS011;9168;51.194;6.840;2023-06-24T00:36:32;17.63;;;8.57;;
18082;SDS011;9168;51.194;6.840;2023-06-24T00:39:02;19.83;;;8.30;;
18082;SDS011;9168;51.194;6.840;2023-06-24T00:41:30;27.15;;;8.38;;
18082;SDS011;9168;51.194;6.840;2023-06-24T00:43:57;13.60;;;8.52;;
18082;SDS011;9168;51.194;6.840;2023-06-24T00:46:25;13.95;;;8.48;;
18082;SDS011;9168;51.194;6.840;2023-06-24T00:48:52;11.80;;;8.40;;
18082;SDS011;9168;51.194;6.840;2023-06-24T00:51:20;17.58;;;8.30;;
18082;SDS011;9168;51.194;6.840;2023-06-24T00:53:51;12.93;;;7.88;;
18082;SDS011;9168;51.194;6.840;2023-06-24T00:56:19;15.40;;;8.23;;
18082;SDS011;9168;51.194;6.840;2023-06-24T00:58:49;16.33;;;8.00;;
18082;SDS011;9168;51.194;6.840;2023-06-24T01:01:16;13.98;;;7.75;;
18082;SDS011;9168;51.194;6.840;2023-06-24T01:03:44;19.10;;;9.23;;
18082;SDS011;9168;51.194;6.840;2023-06-24T01:06:12;14.40;;;8.23;;
18082;SDS011;9168;51.194;6.840;2023-06-24T01:08:40;14.10;;;7.65;;
18082;SDS011;9168;51.194;6.840;2023-06-24T01:11:07;15.38;;;8.50;;
18082;SDS011;9168;51.194;6.840;2023-06-24T01:13:35;17.33;;;8.55;;
18082;SDS011;9168;51.194;6.840;2023-06-24T01:16:03;15.32;;;7.68;;
18082;SDS011;9168;51.194;6.840;2023-06-24T01:18:38;15.73;;;8.20;;
18082;SDS011;9168;51.194;6.840;2023-06-24T01:21:10;19.05;;;8.43;;
18082;SDS011;9168;51.194;6.840;2023-06-24T01:23:50;14.35;;;8.10;;
18082;SDS011;9168;51.194;6.840;2023-06-24T01:26:40;17.52;;;8.60;;
18082;SDS011;9168;51.194;6.840;2023-06-24T01:29:44;11.75;;;7.32;;
18082;SDS011;9168;51.194;6.840;2023-06-24T01:32:24;13.75;;;8.05;;
18082;SDS011;9168;51.194;6.840;2023-06-24T01:34:56;15.25;;;8.20;;
18082;SDS011;9168;51.194;6.840;2023-06-24T01:37:28;16.45;;;8.18;;
18082;SDS011;9168;51.194;6.840;2023-06-24T01:40:00;14.35;;;8.63;;
18082;SDS011;9168;51.194;6.840;2023-06-24T01:42:35;14.68;;;7.97;;
18082;SDS011;9168;51.194;6.840;2023-06-24T01:45:05;16.33;;;8.27;;
18082;SDS011;9168;51.194;6.840;2023-06-24T01:47:36;19.10;;;8.48;;
18082;SDS011;9168;51.194;6.840;2023-06-24T01:50:06;19.17;;;8.57;;
18082;SDS011;9168;51.194;6.840;2023-06-24T01:52:36;14.75;;;8.15;;
18082;SDS011;9168;51.194;6.840;2023-06-24T01:55:07;15.82;;;7.97;;
18082;SDS011;9168;51.194;6.840;2023-06-24T01:57:36;17.02;;;8.60;;
18082;SDS011;9168;51.194;6.840;2023-06-24T02:00:06;11.88;;;7.63;;
18082;SDS011;9168;51.194;6.840;2023-06-24T02:02:37;14.52;;;8.10;;
18082;SDS011;9168;51.194;6.840;2023-06-24T02:05:05;11.43;;;8.00;;
18082;SDS011;9168;51.194;6.840;2023-06-24T02:07:34;14.35;;;8.20;;
18082;SDS011;9168;51.194;6.840;2023-06-24T02:10:02;16.65;;;8.75;;
18082;SDS011;9168;51.194;6.840;2023-06-24T02:12:30;14.85;;;7.88;;
18082;SDS011;9168;51.194;6.840;2023-06-24T02:14:58;16.95;;;8.77;;
18082;SDS011;9168;51.194;6.840;2023-06-24T02:17:26;15.38;;;8.45;;
18082;SDS011;9168;51.194;6.840;2023-06-24T02:19:56;14.35;;;8.57;;
18082;SDS011;9168;51.194;6.840;2023-06-24T02:22:24;17.08;;;8.95;;
18082;SDS011;9168;51.194;6.840;2023-06-24T02:24:52;17.42;;;8.55;;
18082;SDS011;9168;51.194;6.840;2023-06-24T02:27:20;11.05;;;7.85;;
18082;SDS011;9168;51.194;6.840;2023-06-24T02:29:47;16.77;;;7.85;;
18082;SDS011;9168;51.194;6.840;2023-06-24T02:32:14;15.50;;;8.25;;
18082;SDS011;9168;51.194;6.840;2023-06-24T02:34:41;14.27;;;7.55;;
18082;SDS011;9168;51.194;6.840;2023-06-24T02:37:10;10.35;;;7.82;;
18082;SDS011;9168;51.194;6.840;2023-06-24T02:39:37;12.23;;;8.13;;
18082;SDS011;9168;51.194;6.840;2023-06-24T02:42:09;14.52;;;8.20;;
18082;SDS011;9168;51.194;6.840;2023-06-24T02:44:36;12.13;;;8.57;;
18082;SDS011;9168;51.194;6.840;2023-06-24T02:47:05;18.83;;;7.75;;
18082;SDS011;9168;51.194;6.840;2023-06-24T02:49:34;12.23;;;8.50;;
18082;SDS011;9168;51.194;6.840;2023-06-24T02:52:03;12.15;;;8.25;;
18082;SDS011;9168;51.194;6.840;2023-06-24T02:54:32;14.50;;;7.95;;
18082;SDS011;9168;51.194;6.840;2023-06-24T02:57:00;13.45;;;8.00;;
18082;SDS011;9168;51.194;6.840;2023-06-24T02:59:28;18.58;;;8.18;;
18082;SDS011;9168;51.194;6.840;2023-06-24T03:01:55;14.52;;;8.18;;
18082;SDS011;9168;51.194;6.840;2023-06-24T03:04:22;17.63;;;8.57;;
18082;SDS011;9168;51.194;6.840;2023-06-24T03:06:50;15.13;;;8.20;;
18082;SDS011;9168;51.194;6.840;2023-06-24T03:09:17;12.90;;;8.15;;
18082;SDS011;9168;51.194;6.840;2023-06-24T03:11:46;14.25;;;8.43;;
18082;SDS011;9168;51.194;6.840;2023-06-24T03:14:13;17.20;;;8.38;;
18082;SDS011;9168;51.194;6.840;2023-06-24T03:16:40;15.52;;;8.32;;
18082;SDS011;9168;51.194;6.840;2023-06-24T03:19:07;14.00;;;8.75;;
18082;SDS011;9168;51.194;6.840;2023-06-24T03:21:34;13.75;;;8.32;;
18082;SDS011;9168;51.194;6.840;2023-06-24T03:24:01;16.58;;;9.10;;
18082;SDS011;9168;51.194;6.840;2023-06-24T03:26:31;19.85;;;8.45;;
18082;SDS011;9168;51.194;6.840;2023-06-24T03:29:00;17.05;;;8.15;;
18082;SDS011;9168;51.194;6.840;2023-06-24T03:31:27;18.52;;;8.45;;
18082;SDS011;9168;51.194;6.840;2023-06-24T03:33:54;14.85;;;8.70;;
18082;SDS011;9168;51.194;6.840;2023-06-24T03:36:21;15.90;;;9.10;;
18082;SDS011;9168;51.194;6.840;2023-06-24T03:38:49;18.27;;;8.40;;
18082;SDS011;9168;51.194;6.840;2023-06-24T03:41:15;19.60;;;8.73;;
18082;SDS011;9168;51.194;6.840;2023-06-24T03:43:42;13.82;;;8.65;;
18082;SDS011;9168;51.194;6.840;2023-06-24T03:46:11;14.23;;;8.93;;
18082;SDS011;9168;51.194;6.840;2023-06-24T03:48:38;17.15;;;8.35;;
18082;SDS011;9168;51.194;6.840;2023-06-24T03:51:05;16.90;;;7.82;;
18082;SDS011;9168;51.194;6.840;2023-06-24T03:53:32;16.25;;;8.82;;
18082;SDS011;9168;51.194;6.840;2023-06-24T03:55:59;15.88;;;8.80;;
18082;SDS011;9168;51.194;6.840;2023-06-24T03:58:26;18.02;;;9.00;;
18082;SDS011;9168;51.194;6.840;2023-06-24T04:00:53;14.13;;;8.20;;
18082;SDS011;9168;51.194;6.840;2023-06-24T04:03:23;16.20;;;8.80;;
18082;SDS011;9168;51.194;6.840;2023-06-24T04:05:51;12.63;;;7.70;;
18082;SDS011;9168;51.194;6.840;2023-06-24T04:08:19;14.27;;;8.63;;
18082;SDS011;9168;51.194;6.840;2023-06-24T04:10:46;15.00;;;8.05;;
18082;SDS011;9168;51.194;6.840;2023-06-24T04:13:13;15.15;;;8.60;;
18082;SDS011;9168;51.194;6.840;2023-06-24T04:15:40;12.00;;;8.18;;
18082;SDS011;9168;51.194;6.840;2023-06-24T04:18:07;12.60;;;8.38;;
18082;SDS011;9168;51.194;6.840;2023-06-24T04:20:35;14.93;;;8.20;;
18082;SDS011;9168;51.194;6.840;2023-06-24T04:23:02;18.80;;;8.45;;
18082;SDS011;9168;51.194;6.840;2023-06-24T04:25:30;13.43;;;8.98;;
18082;SDS011;9168;51.194;6.840;2023-06-24T04:27:57;15.60;;;8.85;;
18082;SDS011;9168;51.194;6.840;2023-06-24T04:30:24;15.05;;;8.48;;
18082;SDS011;9168;51.194;6.840;2023-06-24T04:32:50;16.67;;;8.30;;
18082;SDS011;9168;51.194;6.840;2023-06-24T04:35:17;17.23;;;9.65;;
18082;SDS011;9168;51.194;6.840;2023-06-24T04:37:46;15.52;;;9.27;;
18082;SDS011;9168;51.194;6.840;2023-06-24T04:40:14;20.17;;;9.88;;
18082;SDS011;9168;51.194;6.840;2023-06-24T04:42:41;14.13;;;9.55;;
18082;SDS011;9168;51.194;6.840;2023-06-24T04:45:08;25.15;;;9.63;;
18082;SDS011;9168;51.194;6.840;2023-06-24T04:47:36;18.92;;;9.77;;
18082;SDS011;9168;51.194;6.840;2023-06-24T04:50:03;19.60;;;10.75;;
18082;SDS011;9168;51.194;6.840;2023-06-24T04:52:30;15.55;;;9.38;;
18082;SDS011;9168;51.194;6.840;2023-06-24T04:54:58;18.27;;;10.40;;
18082;SDS011;9168;51.194;6.840;2023-06-24T04:57:26;16.33;;;10.32;;
18082;SDS011;9168;51.194;6.840;2023-06-24T04:59:53;16.83;;;9.77;;
18082;SDS011;9168;51.194;6.840;2023-06-24T05:02:20;24.75;;;10.02;;
18082;SDS011;9168;51.194;6.840;2023-06-24T05:04:47;14.95;;;9.75;;
18082;SDS011;9168;51.194;6.840;2023-06-24T05:07:14;16.85;;;10.35;;
18082;SDS011;9168;51.194;6.840;2023-06-24T05:09:41;16.98;;;9.70;;
18082;SDS011;9168;51.194;6.840;2023-06-24T05:12:10;14.82;;;10.05;;
18082;SDS011;9168;51.194;6.840;2023-06-24T05:14:37;17.40;;;9.65;;
18082;SDS011;9168;51.194;6.840;2023-06-24T05:17:04;17.63;;;10.57;;
18082;SDS011;9168;51.194;6.840;2023-06-24T05:19:31;16.95;;;9.88;;
18082;SDS011;9168;51.194;6.840;2023-06-24T05:21:58;20.17;;;10.13;;
18082;SDS011;9168;51.194;6.840;2023-06-24T05:24:25;20.48;;;10.82;;
18082;SDS011;9168;51.194;6.840;2023-06-24T05:26:52;16.10;;;9.52;;
18082;SDS011;9168;51.194;6.840;2023-06-24T05:29:20;17.35;;;10.40;;
18082;SDS011;9168;51.194;6.840;2023-06-24T05:31:47;15.77;;;8.98;;
18082;SDS011;9168;51.194;6.840;2023-06-24T05:34:14;20.20;;;10.38;;
18082;SDS011;9168;51.194;6.840;2023-06-24T05:36:41;17.40;;;10.27;;
18082;SDS011;9168;51.194;6.840;2023-06-24T05:39:08;17.88;;;9.93;;
18082;SDS011;9168;51.194;6.840;2023-06-24T05:41:36;19.00;;;10.80;;
18082;SDS011;9168;51.194;6.840;2023-06-24T05:44:03;16.08;;;10.40;;
18082;SDS011;9168;51.194;6.840;2023-06-24T05:46:32;16.83;;;9.98;;
18082;SDS011;9168;51.194;6.840;2023-06-24T05:48:59;26.50;;;11.20;;
18082;SDS011;9168;51.194;6.840;2023-06-24T05:51:26;17.08;;;10.88;;
18082;SDS011;9168;51.194;6.840;2023-06-24T05:53:53;20.85;;;11.25;;
18082;SDS011;9168;51.194;6.840;2023-06-24T05:56:20;19.17;;;9.95;;
18082;SDS011;9168;51.194;6.840;2023-06-24T05:58:48;17.85;;;10.43;;
18082;SDS011;9168;51.194;6.840;2023-06-24T06:01:15;18.55;;;10.93;;
18082;SDS011;9168;51.194;6.840;2023-06-24T06:03:43;19.20;;;10.88;;
18082;SDS011;9168;51.194;6.840;2023-06-24T06:06:10;21.20;;;10.60;;
18082;SDS011;9168;51.194;6.840;2023-06-24T06:08:37;20.08;;;11.75;;
18082;SDS011;9168;51.194;6.840;2023-06-24T06:11:04;20.27;;;11.43;;
18082;SDS011;9168;51.194;6.840;2023-06-24T06:13:31;17.65;;;10.18;;
18082;SDS011;9168;51.194;6.840;2023-06-24T06:15:59;20.98;;;10.68;;
18082;SDS011;9168;51.194;6.840;2023-06-24T06:18:26;24.42;;;12.55;;
18082;SDS011;9168;51.194;6.840;2023-06-24T06:20:54;23.10;;;12.02;;
18082;SDS011;9168;51.194;6.840;2023-06-24T06:23:21;19.85;;;12.02;;
18082;SDS011;9168;51.194;6.840;2023-06-24T06:25:48;23.33;;;13.20;;
18082;SDS011;9168;51.194;6.840;2023-06-24T06:28:15;22.52;;;13.50;;
18082;SDS011;9168;51.194;6.840;2023-06-24T06:30:42;23.95;;;14.52;;
18082;SDS011;9168;51.194;6.840;2023-06-24T06:33:09;21.25;;;13.02;;
18082;SDS011;9168;51.194;6.840;2023-06-24T06:35:36;26.15;;;14.38;;
18082;SDS011;9168;51.194;6.840;2023-06-24T06:38:04;23.40;;;13.50;;
18082;SDS011;9168;51.194;6.840;2023-06-24T06:40:31;25.40;;;12.98;;
18082;SDS011;9168;51.194;6.840;2023-06-24T06:42:58;23.00;;;13.52;;
18082;SDS011;9168;51.194;6.840;2023-06-24T06:45:25;25.98;;;13.23;;
18082;SDS011;9168;51.194;6.840;2023-06-24T06:47:52;24.35;;;14.30;;
18082;SDS011;9168;51.194;6.840;2023-06-24T06:50:19;26.33;;;14.70;;
18082;SDS011;9168;51.194;6.840;2023-06-24T06:52:46;25.80;;;15.02;;
18082;SDS011;9168;51.194;6.840;2023-06-24T06:55:14;26.42;;;14.63;;
18082;SDS011;9168;51.194;6.840;2023-06-24T06:57:41;22.85;;;12.65;;
18082;SDS011;9168;51.194;6.840;2023-06-24T07:00:08;23.45;;;13.45;;
18082;SDS011;9168;51.194;6.840;2023-06-24T07:02:36;28.83;;;14.52;;
18082;SDS011;9168;51.194;6.840;2023-06-24T07:05:03;28.40;;;14.43;;
18082;SDS011;9168;51.194;6.840;2023-06-24T07:07:31;21.65;;;12.50;;
18082;SDS011;9168;51.194;6.840;2023-06-24T07:09:58;22.65;;;12.48;;
18082;SDS011;9168;51.194;6.840;2023-06-24T07:12:27;20.15;;;11.77;;
18082;SDS011;9168;51.194;6.840;2023-06-24T07:14:54;19.70;;;10.18;;
18082;SDS011;9168;51.194;6.840;2023-06-24T07:17:20;14.48;;;9.18;;
18082;SDS011;9168;51.194;6.840;2023-06-24T07:19:47;23.45;;;11.43;;
18082;SDS011;9168;51.194;6.840;2023-06-24T07:22:14;20.85;;;11.30;;
18082;SDS011;9168;51.194;6.840;2023-06-24T07:24:41;18.92;;;9.95;;
18082;SDS011;9168;51.194;6.840;2023-06-24T07:27:08;15.77;;;9.02;;
18082;SDS011;9168;51.194;6.840;2023-06-24T07:29:36;19.40;;;10.70;;
18082;SDS011;9168;51.194;6.840;2023-06-24T07:32:04;19.77;;;10.55;;
18082;SDS011;9168;51.194;6.840;2023-06-24T07:34:32;21.98;;;9.90;;
18082;SDS011;9168;51.194;6.840;2023-06-24T07:36:59;22.30;;;10.32;;
18082;SDS011;9168;51.194;6.840;2023-06-24T07:39:26;15.95;;;10.02;;
18082;SDS011;9168;51.194;6.840;2023-06-24T07:41:53;21.75;;;9.68;;
18082;SDS011;9168;51.194;6.840;2023-06-24T07:44:20;21.45;;;9.30;;
18082;SDS011;9168;51.194;6.840;2023-06-24T07:46:48;20.08;;;8.18;;
18082;SDS011;9168;51.194;6.840;2023-06-24T07:49:16;16.45;;;7.45;;
18082;SDS011;9168;51.194;6.840;2023-06-24T07:51:43;15.63;;;8.38;;
18082;SDS011;9168;51.194;6.840;2023-06-24T07:54:11;11.60;;;7.57;;
18082;SDS011;9168;51.194;6.840;2023-06-24T07:56:38;18.25;;;7.20;;
18082;SDS011;9168;51.194;6.840;2023-06-24T07:59:05;13.93;;;8.25;;
18082;SDS011;9168;51.194;6.840;2023-06-24T08:01:32;20.55;;;8.63;;
18082;SDS011;9168;51.194;6.840;2023-06-24T08:04:00;13.82;;;7.70;;
18082;SDS011;9168;51.194;6.840;2023-06-24T08:06:27;17.40;;;8.00;;
18082;SDS011;9168;51.194;6.840;2023-06-24T08:08:54;18.35;;;7.18;;
18082;SDS011;9168;51.194;6.840;2023-06-24T08:11:21;15.57;;;9.05;;
18082;SDS011;9168;51.194;6.840;2023-06-24T08:13:48;16.02;;;8.68;;
18082;SDS011;9168;51.194;6.840;2023-06-24T08:16:18;17.45;;;7.45;;
18082;SDS011;9168;51.194;6.840;2023-06-24T08:18:45;14.77;;;7.50;;
18082;SDS011;9168;51.194;6.840;2023-06-24T08:21:14;17.25;;;7.75;;
18082;SDS011;9168;51.194;6.840;2023-06-24T08:23:41;12.57;;;6.60;;
18082;SDS011;9168;51.194;6.840;2023-06-24T08:26:07;13.25;;;8.43;;
18082;SDS011;9168;51.194;6.840;2023-06-24T08:28:34;13.57;;;7.00;;
18082;SDS011;9168;51.194;6.840;2023-06-24T08:31:01;14.00;;;6.43;;
18082;SDS011;9168;51.194;6.840;2023-06-24T08:33:28;12.65;;;6.68;;
18082;SDS011;9168;51.194;6.840;2023-06-24T08:35:55;15.63;;;7.18;;
18082;SDS011;9168;51.194;6.840;2023-06-24T08:38:23;12.52;;;5.70;;
18082;SDS011;9168;51.194;6.840;2023-06-24T08:40:50;17.08;;;7.55;;
18082;SDS011;9168;51.194;6.840;2023-06-24T08:43:18;19.33;;;7.75;;
18082;SDS011;9168;51.194;6.840;2023-06-24T08:45:45;13.90;;;6.95;;
18082;SDS011;9168;51.194;6.840;2023-06-24T08:48:12;20.60;;;7.47;;
18082;SDS011;9168;51.194;6.840;2023-06-24T08:50:43;13.63;;;6.72;;
18082;SDS011;9168;51.194;6.840;2023-06-24T08:53:11;15.52;;;7.13;;
18082;SDS011;9168;51.194;6.840;2023-06-24T08:55:42;14.55;;;8.43;;
18082;SDS011;9168;51.194;6.840;2023-06-24T08:58:10;14.68;;;8.23;;
18082;SDS011;9168;51.194;6.840;2023-06-24T09:00:37;17.45;;;9.93;;
18082;SDS011;9168;51.194;6.840;2023-06-24T09:03:04;16.17;;;8.27;;
18082;SDS011;9168;51.194;6.840;2023-06-24T09:05:31;16.88;;;9.30;;
18082;SDS011;9168;51.194;6.840;2023-06-24T09:07:58;26.30;;;9.52;;
18082;SDS011;9168;51.194;6.840;2023-06-24T09:10:31;16.70;;;8.43;;
18082;SDS011;9168;51.194;6.840;2023-06-24T09:13:00;16.73;;;8.77;;
18082;SDS011;9168;51.194;6.840;2023-06-24T09:15:31;43.55;;;10.98;;
18082;SDS011;9168;51.194;6.840;2023-06-24T09:17:58;30.80;;;10.65;;
18082;SDS011;9168;51.194;6.840;2023-06-24T09:20:26;14.90;;;8.82;;
18082;SDS011;9168;51.194;6.840;2023-06-24T09:22:57;19.23;;;9.45;;
18082;SDS011;9168;51.194;6.840;2023-06-24T09:25:24;16.23;;;7.10;;
18082;SDS011;9168;51.194;6.840;2023-06-24T09:27:51;14.40;;;7.57;;
18082;SDS011;9168;51.194;6.840;2023-06-24T09:30:22;15.80;;;8.70;;
18082;SDS011;9168;51.194;6.840;2023-06-24T09:32:52;14.15;;;7.57;;
18082;SDS011;9168;51.194;6.840;2023-06-24T09:35:20;18.38;;;9.27;;
18082;SDS011;9168;51.194;6.840;2023-06-24T09:37:49;15.50;;;8.40;;
18082;SDS011;9168;51.194;6.840;2023-06-24T09:40:16;15.52;;;7.90;;
18082;SDS011;9168;51.194;6.840;2023-06-24T09:42:50;19.08;;;9.15;;
18082;SDS011;9168;51.194;6.840;2023-06-24T09:45:23;15.85;;;7.20;;
18082;SDS011;9168;51.194;6.840;2023-06-24T09:47:52;13.00;;;6.78;;
18082;SDS011;9168;51.194;6.840;2023-06-24T09:50:19;11.05;;;5.28;;
18082;SDS011;9168;51.194;6.840;2023-06-24T09:52:47;9.98;;;5.45;;
18082;SDS011;9168;51.194;6.840;2023-06-24T09:55:16;8.50;;;4.25;;
18082;SDS011;9168;51.194;6.840;2023-06-24T09:57:44;8.30;;;4.38;;
18082;SDS011;9168;51.194;6.840;2023-06-24T10:00:13;7.22;;;4.47;;
18082;SDS011;9168;51.194;6.840;2023-06-24T10:02:43;13.52;;;5.75;;
18082;SDS011;9168;51.194;6.840;2023-06-24T10:05:11;9.68;;;5.55;;
18082;SDS011;9168;51.194;6.840;2023-06-24T10:07:39;13.85;;;6.78;;
18082;SDS011;9168;51.194;6.840;2023-06-24T10:10:07;8.98;;;5.15;;
18082;SDS011;9168;51.194;6.840;2023-06-24T10:12:35;11.95;;;5.00;;
18082;SDS011;9168;51.194;6.840;2023-06-24T10:15:03;10.15;;;5.32;;
18082;SDS011;9168;51.194;6.840;2023-06-24T10:17:31;13.45;;;6.30;;
18082;SDS011;9168;51.194;6.840;2023-06-24T10:20:00;11.75;;;5.95;;
18082;SDS011;9168;51.194;6.840;2023-06-24T10:22:31;12.60;;;5.82;;
18082;SDS011;9168;51.194;6.840;2023-06-24T10:24:59;11.50;;;6.10;;
18082;SDS011;9168;51.194;6.840;2023-06-24T10:27:26;12.25;;;6.25;;
18082;SDS011;9168;51.194;6.840;2023-06-24T10:29:57;11.00;;;6.05;;
18082;SDS011;9168;51.194;6.840;2023-06-24T10:32:28;14.93;;;6.28;;
18082;SDS011;9168;51.194;6.840;2023-06-24T10:35:08;12.05;;;6.45;;
18082;SDS011;9168;51.194;6.840;2023-06-24T10:37:53;17.98;;;6.50;;
18082;SDS011;9168;51.194;6.840;2023-06-24T10:40:33;13.43;;;5.45;;
18082;SDS011;9168;51.194;6.840;2023-06-24T10:43:05;14.45;;;5.53;;
18082;SDS011;9168;51.194;6.840;2023-06-24T10:45:52;9.45;;;5.05;;
18082;SDS011;9168;51.194;6.840;2023-06-24T10:48:19;10.25;;;5.20;;
18082;SDS011;9168;51.194;6.840;2023-06-24T10:50:48;10.85;;;4.88;;
18082;SDS011;9168;51.194;6.840;2023-06-24T10:53:15;5.93;;;4.10;;
18082;SDS011;9168;51.194;6.840;2023-06-24T10:55:43;11.05;;;4.72;;
18082;SDS011;9168;51.194;6.840;2023-06-24T10:58:11;11.55;;;4.95;;
18082;SDS011;9168;51.194;6.840;2023-06-24T11:00:39;13.88;;;4.97;;
18082;SDS011;9168;51.194;6.840;2023-06-24T11:03:09;13.40;;;5.28;;
18082;SDS011;9168;51.194;6.840;2023-06-24T11:05:38;9.95;;;4.95;;
18082;SDS011;9168;51.194;6.840;2023-06-24T11:08:07;9.98;;;5.10;;
18082;SDS011;9168;51.194;6.840;2023-06-24T11:10:41;8.95;;;4.63;;
18082;SDS011;9168;51.194;6.840;2023-06-24T11:13:09;9.00;;;5.03;;
18082;SDS011;9168;51.194;6.840;2023-06-24T11:15:36;11.57;;;5.00;;
18082;SDS011;9168;51.194;6.840;2023-06-24T11:18:05;10.23;;;4.75;;
18082;SDS011;9168;51.194;6.840;2023-06-24T11:20:35;10.15;;;3.85;;
18082;SDS011;9168;51.194;6.840;2023-06-24T11:23:02;6.38;;;4.32;;
18082;SDS011;9168;51.194;6.840;2023-06-24T11:25:38;13.32;;;4.50;;
18082;SDS011;9168;51.194;6.840;2023-06-24T11:28:12;7.15;;;4.28;;
18082;SDS011;9168;51.194;6.840;2023-06-24T11:30:40;17.90;;;5.13;;
18082;SDS011;9168;51.194;6.840;2023-06-24T11:33:07;8.23;;;4.50;;
18082;SDS011;9168;51.194;6.840;2023-06-24T11:35:33;10.18;;;4.68;;
18082;SDS011;9168;51.194;6.840;2023-06-24T11:38:02;7.22;;;4.55;;
18082;SDS011;9168;51.194;6.840;2023-06-24T11:40:31;8.48;;;4.47;;
18082;SDS011;9168;51.194;6.840;2023-06-24T11:43:00;9.88;;;4.63;;
18082;SDS011;9168;51.194;6.840;2023-06-24T11:45:27;8.27;;;4.45;;
18082;SDS011;9168;51.194;6.840;2023-06-24T11:47:54;11.10;;;4.82;;
18082;SDS011;9168;51.194;6.840;2023-06-24T11:50:29;9.25;;;4.75;;
18082;SDS011;9168;51.194;6.840;2023-06-24T11:52:56;10.10;;;4.65;;
18082;SDS011;9168;51.194;6.840;2023-06-24T11:55:24;10.98;;;4.45;;
18082;SDS011;9168;51.194;6.840;2023-06-24T11:57:57;8.98;;;4.70;;
18082;SDS011;9168;51.194;6.840;2023-06-24T12:00:25;7.05;;;4.38;;
18082;SDS011;9168;51.194;6.840;2023-06-24T12:02:53;7.70;;;4.93;;
18082;SDS011;9168;51.194;6.840;2023-06-24T12:05:22;10.50;;;4.80;;
18082;SDS011;9168;51.194;6.840;2023-06-24T12:07:53;8.05;;;4.88;;
18082;SDS011;9168;51.194;6.840;2023-06-24T12:10:21;9.40;;;4.50;;
18082;SDS011;9168;51.194;6.840;2023-06-24T12:12:48;8.93;;;4.45;;
18082;SDS011;9168;51.194;6.840;2023-06-24T12:15:16;11.13;;;4.40;;
18082;SDS011;9168;51.194;6.840;2023-06-24T12:17:43;6.25;;;4.55;;
18082;SDS011;9168;51.194;6.840;2023-06-24T12:20:10;7.05;;;4.57;;
18082;SDS011;9168;51.194;6.840;2023-06-24T12:22:38;8.43;;;4.13;;
18082;SDS011;9168;51.194;6.840;2023-06-24T12:25:06;9.48;;;4.60;;
18082;SDS011;9168;51.194;6.840;2023-06-24T12:27:33;14.10;;;4.60;;
18082;SDS011;9168;51.194;6.840;2023-06-24T12:30:00;7.07;;;4.25;;
18082;SDS011;9168;51.194;6.840;2023-06-24T12:32:28;5.13;;;4.30;;
18082;SDS011;9168;51.194;6.840;2023-06-24T12:34:55;9.85;;;4.70;;
18082;SDS011;9168;51.194;6.840;2023-06-24T12:37:22;7.32;;;4.93;;
18082;SDS011;9168;51.194;6.840;2023-06-24T12:39:49;7.75;;;4.78;;
18082;SDS011;9168;51.194;6.840;2023-06-24T12:42:18;7.28;;;4.80;;
18082;SDS011;9168;51.194;6.840;2023-06-24T12:44:45;8.18;;;4.65;;
18082;SDS011;9168;51.194;6.840;2023-06-24T12:47:12;11.00;;;5.43;;
18082;SDS011;9168;51.194;6.840;2023-06-24T12:49:40;7.13;;;4.28;;
18082;SDS011;9168;51.194;6.840;2023-06-24T12:52:07;10.73;;;4.68;;
18082;SDS011;9168;51.194;6.840;2023-06-24T12:54:34;7.97;;;4.35;;
18082;SDS011;9168;51.194;6.840;2023-06-24T12:57:01;8.82;;;4.38;;
18082;SDS011;9168;51.194;6.840;2023-06-24T12:59:28;7.72;;;3.97;;
18082;SDS011;9168;51.194;6.840;2023-06-24T13:01:55;6.53;;;4.07;;
18082;SDS011;9168;51.194;6.840;2023-06-24T13:04:21;5.85;;;3.83;;
18082;SDS011;9168;51.194;6.840;2023-06-24T13:06:51;4.05;;;3.63;;
18082;SDS011;9168;51.194;6.840;2023-06-24T13:09:18;8.18;;;4.07;;
18082;SDS011;9168;51.194;6.840;2023-06-24T13:11:46;5.63;;;3.60;;
18082;SDS011;9168;51.194;6.840;2023-06-24T13:14:13;8.70;;;4.15;;
18082;SDS011;9168;51.194;6.840;2023-06-24T13:16:40;17.88;;;3.83;;
18082;SDS011;9168;51.194;6.840;2023-06-24T13:19:07;6.00;;;3.92;;
18082;SDS011;9168;51.194;6.840;2023-06-24T13:21:34;8.75;;;3.92;;
18082;SDS011;9168;51.194;6.840;2023-06-24T13:24:02;5.30;;;3.90;;
18082;SDS011;9168;51.194;6.840;2023-06-24T13:26:29;5.50;;;4.07;;
18082;SDS011;9168;51.194;6.840;2023-06-24T13:28:56;8.40;;;4.10;;
18082;SDS011;9168;51.194;6.840;2023-06-24T13:31:23;5.75;;;4.05;;
18082;SDS011;9168;51.194;6.840;2023-06-24T13:33:50;6.25;;;3.40;;
18082;SDS011;9168;51.194;6.840;2023-06-24T13:36:31;7.32;;;3.85;;
18082;SDS011;9168;51.194;6.840;2023-06-24T13:39:02;7.35;;;3.90;;
18082;SDS011;9168;51.194;6.840;2023-06-24T13:41:29;5.43;;;3.75;;
18082;SDS011;9168;51.194;6.840;2023-06-24T13:43:57;4.35;;;3.38;;
18082;SDS011;9168;51.194;6.840;2023-06-24T13:46:25;4.80;;;3.83;;
18082;SDS011;9168;51.194;6.840;2023-06-24T13:48:52;4.45;;;3.50;;
18082;SDS011;9168;51.194;6.840;2023-06-24T13:51:19;5.80;;;3.88;;
18082;SDS011;9168;51.194;6.840;2023-06-24T13:53:46;5.07;;;3.78;;
18082;SDS011;9168;51.194;6.840;2023-06-24T13:56:16;4.93;;;3.60;;
18082;SDS011;9168;51.194;6.840;2023-06-24T13:58:43;5.57;;;3.55;;
18082;SDS011;9168;51.194;6.840;2023-06-24T14:01:10;5.57;;;3.58;;
18082;SDS011;9168;51.194;6.840;2023-06-24T14:03:37;3.58;;;3.20;;
18082;SDS011;9168;51.194;6.840;2023-06-24T14:06:04;7.25;;;3.45;;
18082;SDS011;9168;51.194;6.840;2023-06-24T14:08:31;5.75;;;3.38;;
18082;SDS011;9168;51.194;6.840;2023-06-24T14:10:59;5.03;;;3.72;;
18082;SDS011;9168;51.194;6.840;2023-06-24T14:13:27;5.63;;;3.67;;
18082;SDS011;9168;51.194;6.840;2023-06-24T14:15:56;6.78;;;3.35;;
18082;SDS011;9168;51.194;6.840;2023-06-24T14:18:23;5.18;;;3.60;;
18082;SDS011;9168;51.194;6.840;2023-06-24T14:20:50;13.55;;;4.00;;
18082;SDS011;9168;51.194;6.840;2023-06-24T14:23:17;5.18;;;3.35;;
18082;SDS011;9168;51.194;6.840;2023-06-24T14:25:44;8.00;;;3.45;;
18082;SDS011;9168;51.194;6.840;2023-06-24T14:28:11;5.35;;;3.20;;
18082;SDS011;9168;51.194;6.840;2023-06-24T14:30:39;4.15;;;3.40;;
18082;SDS011;9168;51.194;6.840;2023-06-24T14:33:06;6.03;;;3.63;;
18082;SDS011;9168;51.194;6.840;2023-06-24T14:35:33;4.57;;;3.50;;
18082;SDS011;9168;51.194;6.840;2023-06-24T14:38:00;4.72;;;3.45;;
18082;SDS011;9168;51.194;6.840;2023-06-24T14:40:27;4.30;;;3.35;;
18082;SDS011;9168;51.194;6.840;2023-06-24T14:42:54;5.40;;;3.45;;
18082;SDS011;9168;51.194;6.840;2023-06-24T14:45:24;7.18;;;3.58;;
18082;SDS011;9168;51.194;6.840;2023-06-24T14:47:52;4.63;;;3.33;;
18082;SDS011;9168;51.194;6.840;2023-06-24T14:50:19;5.90;;;3.20;;
18082;SDS011;9168;51.194;6.840;2023-06-24T14:52:46;7.45;;;3.30;;
18082;SDS011;9168;51.194;6.840;2023-06-24T14:55:13;6.55;;;3.55;;